Terminal Aerodrome Forecast
Issued by NWS

Home | Current Version | Previous Version | Text Only | Print | Product List | Glossary On
Versions: 1 2 3 4 5 6 7 8 9 10 11 12
000
FTUS43 KGLD 301120
TAFMCK
TAF
KMCK 301120Z 3012/0112 11005KT P6SM FEW280
     FM301400 14007KT P6SM SCT280
     FM010900 11005KT P6SM BKN110=

USA.gov is the U.S. government's official web portal to all federal, state and local government web resources and services.